sensor_id;sensor_type;location;lat;lon;timestamp;P1;durP1;ratioP1;P2;durP2;ratioP2
75616;SDS011;64200;55.426;37.758;2024-01-25T00:00:18;8.20;;;3.23;;
75616;SDS011;64200;55.426;37.758;2024-01-25T00:05:19;9.77;;;4.55;;
75616;SDS011;64200;55.426;37.758;2024-01-25T00:10:21;9.93;;;4.83;;
75616;SDS011;64200;55.426;37.758;2024-01-25T00:15:22;9.07;;;4.88;;
75616;SDS011;64200;55.426;37.758;2024-01-25T00:20:22;11.18;;;5.07;;
75616;SDS011;64200;55.426;37.758;2024-01-25T00:25:23;12.35;;;5.22;;
75616;SDS011;64200;55.426;37.758;2024-01-25T00:30:24;8.00;;;2.63;;
75616;SDS011;64200;55.426;37.758;2024-01-25T00:35:25;10.65;;;4.80;;
75616;SDS011;64200;55.426;37.758;2024-01-25T00:40:26;10.65;;;4.60;;
75616;SDS011;64200;55.426;37.758;2024-01-25T00:45:27;11.48;;;5.72;;
75616;SDS011;64200;55.426;37.758;2024-01-25T00:50:27;9.40;;;4.15;;
75616;SDS011;64200;55.426;37.758;2024-01-25T00:55:28;10.23;;;4.88;;
75616;SDS011;64200;55.426;37.758;2024-01-25T01:00:29;10.93;;;4.43;;
75616;SDS011;64200;55.426;37.758;2024-01-25T01:05:30;6.90;;;3.80;;
75616;SDS011;64200;55.426;37.758;2024-01-25T01:10:31;9.13;;;3.20;;
75616;SDS011;64200;55.426;37.758;2024-01-25T01:15:31;5.97;;;2.53;;
75616;SDS011;64200;55.426;37.758;2024-01-25T01:20:32;10.90;;;4.40;;
75616;SDS011;64200;55.426;37.758;2024-01-25T01:25:32;11.13;;;3.90;;
75616;SDS011;64200;55.426;37.758;2024-01-25T01:30:33;10.50;;;5.70;;
75616;SDS011;64200;55.426;37.758;2024-01-25T01:35:33;8.37;;;3.80;;
75616;SDS011;64200;55.426;37.758;2024-01-25T01:40:34;8.70;;;3.93;;
75616;SDS011;64200;55.426;37.758;2024-01-25T01:45:34;12.10;;;5.27;;
75616;SDS011;64200;55.426;37.758;2024-01-25T01:50:35;6.93;;;3.47;;
75616;SDS011;64200;55.426;37.758;2024-01-25T01:55:35;7.63;;;3.90;;
75616;SDS011;64200;55.426;37.758;2024-01-25T02:00:37;6.80;;;2.88;;
75616;SDS011;64200;55.426;37.758;2024-01-25T02:05:38;10.77;;;5.07;;
75616;SDS011;64200;55.426;37.758;2024-01-25T02:10:39;7.03;;;3.43;;
75616;SDS011;64200;55.426;37.758;2024-01-25T02:15:39;7.45;;;3.50;;
75616;SDS011;64200;55.426;37.758;2024-01-25T02:20:40;5.77;;;3.10;;
75616;SDS011;64200;55.426;37.758;2024-01-25T02:25:41;5.03;;;2.13;;
75616;SDS011;64200;55.426;37.758;2024-01-25T02:30:41;7.77;;;2.93;;
75616;SDS011;64200;55.426;37.758;2024-01-25T02:35:42;12.50;;;4.63;;
75616;SDS011;64200;55.426;37.758;2024-01-25T02:40:42;6.20;;;2.60;;
75616;SDS011;64200;55.426;37.758;2024-01-25T02:45:43;6.28;;;3.22;;
75616;SDS011;64200;55.426;37.758;2024-01-25T02:50:43;5.40;;;3.37;;
75616;SDS011;64200;55.426;37.758;2024-01-25T02:55:44;8.00;;;3.90;;
75616;SDS011;64200;55.426;37.758;2024-01-25T03:00:44;6.07;;;2.80;;
75616;SDS011;64200;55.426;37.758;2024-01-25T03:05:45;12.10;;;3.85;;
75616;SDS011;64200;55.426;37.758;2024-01-25T03:10:46;8.30;;;3.80;;
75616;SDS011;64200;55.426;37.758;2024-01-25T03:15:49;8.85;;;4.25;;
75616;SDS011;64200;55.426;37.758;2024-01-25T03:20:50;9.17;;;3.40;;
75616;SDS011;64200;55.426;37.758;2024-01-25T03:25:51;4.85;;;2.42;;
75616;SDS011;64200;55.426;37.758;2024-01-25T03:30:51;9.60;;;3.97;;
75616;SDS011;64200;55.426;37.758;2024-01-25T03:35:52;6.68;;;3.38;;
75616;SDS011;64200;55.426;37.758;2024-01-25T03:40:52;4.97;;;3.47;;
75616;SDS011;64200;55.426;37.758;2024-01-25T03:45:54;6.38;;;2.30;;
75616;SDS011;64200;55.426;37.758;2024-01-25T03:50:54;7.93;;;4.17;;
75616;SDS011;64200;55.426;37.758;2024-01-25T03:55:56;9.10;;;3.65;;
75616;SDS011;64200;55.426;37.758;2024-01-25T04:00:56;10.17;;;4.03;;
75616;SDS011;64200;55.426;37.758;2024-01-25T04:05:58;8.40;;;4.38;;
75616;SDS011;64200;55.426;37.758;2024-01-25T04:10:58;7.63;;;3.60;;
75616;SDS011;64200;55.426;37.758;2024-01-25T04:15:59;5.03;;;2.80;;
75616;SDS011;64200;55.426;37.758;2024-01-25T04:21:00;8.47;;;4.00;;
75616;SDS011;64200;55.426;37.758;2024-01-25T04:26:00;6.57;;;3.53;;
75616;SDS011;64200;55.426;37.758;2024-01-25T04:31:01;7.10;;;2.65;;
75616;SDS011;64200;55.426;37.758;2024-01-25T04:36:03;10.88;;;4.57;;
75616;SDS011;64200;55.426;37.758;2024-01-25T04:41:04;10.57;;;4.30;;
75616;SDS011;64200;55.426;37.758;2024-01-25T04:46:05;10.88;;;4.93;;
75616;SDS011;64200;55.426;37.758;2024-01-25T04:51:06;14.88;;;5.55;;
75616;SDS011;64200;55.426;37.758;2024-01-25T04:56:07;12.00;;;4.57;;
75616;SDS011;64200;55.426;37.758;2024-01-25T05:01:07;11.73;;;5.07;;
75616;SDS011;64200;55.426;37.758;2024-01-25T05:06:08;10.20;;;4.93;;
75616;SDS011;64200;55.426;37.758;2024-01-25T05:11:08;9.73;;;4.67;;
75616;SDS011;64200;55.426;37.758;2024-01-25T05:16:09;6.72;;;3.53;;
75616;SDS011;64200;55.426;37.758;2024-01-25T05:21:09;10.23;;;4.63;;
75616;SDS011;64200;55.426;37.758;2024-01-25T05:26:10;11.98;;;6.55;;
75616;SDS011;64200;55.426;37.758;2024-01-25T05:31:11;4.22;;;2.58;;
75616;SDS011;64200;55.426;37.758;2024-01-25T05:36:14;9.77;;;4.75;;
75616;SDS011;64200;55.426;37.758;2024-01-25T05:41:14;9.85;;;4.57;;
75616;SDS011;64200;55.426;37.758;2024-01-25T05:46:15;7.60;;;3.72;;
75616;SDS011;64200;55.426;37.758;2024-01-25T05:51:16;7.35;;;4.05;;
75616;SDS011;64200;55.426;37.758;2024-01-25T05:56:16;5.55;;;3.10;;
75616;SDS011;64200;55.426;37.758;2024-01-25T06:01:17;12.25;;;5.63;;
75616;SDS011;64200;55.426;37.758;2024-01-25T06:06:17;12.87;;;5.10;;
75616;SDS011;64200;55.426;37.758;2024-01-25T06:11:18;7.30;;;2.85;;
75616;SDS011;64200;55.426;37.758;2024-01-25T06:16:22;6.95;;;3.88;;
75616;SDS011;64200;55.426;37.758;2024-01-25T06:21:22;5.30;;;2.73;;
75616;SDS011;64200;55.426;37.758;2024-01-25T06:26:23;6.05;;;2.55;;
75616;SDS011;64200;55.426;37.758;2024-01-25T06:31:24;8.47;;;4.20;;
75616;SDS011;64200;55.426;37.758;2024-01-25T06:36:24;10.93;;;4.47;;
75616;SDS011;64200;55.426;37.758;2024-01-25T06:41:25;6.40;;;3.73;;
75616;SDS011;64200;55.426;37.758;2024-01-25T06:46:25;7.63;;;2.83;;
75616;SDS011;64200;55.426;37.758;2024-01-25T06:51:27;5.65;;;2.80;;
75616;SDS011;64200;55.426;37.758;2024-01-25T06:56:27;8.02;;;3.92;;
75616;SDS011;64200;55.426;37.758;2024-01-25T07:01:28;6.18;;;3.25;;
75616;SDS011;64200;55.426;37.758;2024-01-25T07:06:30;8.07;;;4.38;;
75616;SDS011;64200;55.426;37.758;2024-01-25T07:11:31;4.80;;;2.13;;
75616;SDS011;64200;55.426;37.758;2024-01-25T07:16:31;5.70;;;2.47;;
75616;SDS011;64200;55.426;37.758;2024-01-25T07:21:32;1.97;;;1.23;;
75616;SDS011;64200;55.426;37.758;2024-01-25T07:26:32;5.87;;;2.40;;
75616;SDS011;64200;55.426;37.758;2024-01-25T07:31:33;6.80;;;2.60;;
75616;SDS011;64200;55.426;37.758;2024-01-25T07:36:33;8.07;;;3.20;;
75616;SDS011;64200;55.426;37.758;2024-01-25T07:41:34;3.77;;;2.17;;
75616;SDS011;64200;55.426;37.758;2024-01-25T07:46:34;7.00;;;3.33;;
75616;SDS011;64200;55.426;37.758;2024-01-25T07:51:35;5.73;;;3.17;;
75616;SDS011;64200;55.426;37.758;2024-01-25T07:56:35;7.77;;;4.10;;
75616;SDS011;64200;55.426;37.758;2024-01-25T08:01:36;6.13;;;2.90;;
75616;SDS011;64200;55.426;37.758;2024-01-25T08:06:37;7.03;;;2.95;;
75616;SDS011;64200;55.426;37.758;2024-01-25T08:11:38;9.70;;;4.27;;
75616;SDS011;64200;55.426;37.758;2024-01-25T08:16:39;7.25;;;3.08;;
75616;SDS011;64200;55.426;37.758;2024-01-25T08:21:39;4.03;;;3.07;;
75616;SDS011;64200;55.426;37.758;2024-01-25T08:26:40;6.47;;;3.42;;
75616;SDS011;64200;55.426;37.758;2024-01-25T08:31:41;3.40;;;2.03;;
75616;SDS011;64200;55.426;37.758;2024-01-25T08:36:41;6.53;;;2.90;;
75616;SDS011;64200;55.426;37.758;2024-01-25T08:41:42;6.73;;;2.73;;
75616;SDS011;64200;55.426;37.758;2024-01-25T08:46:42;5.97;;;3.00;;
75616;SDS011;64200;55.426;37.758;2024-01-25T08:51:43;8.10;;;3.03;;
75616;SDS011;64200;55.426;37.758;2024-01-25T08:56:44;4.63;;;2.47;;
75616;SDS011;64200;55.426;37.758;2024-01-25T09:01:44;1.93;;;1.43;;
75616;SDS011;64200;55.426;37.758;2024-01-25T09:06:45;5.07;;;2.13;;
75616;SDS011;64200;55.426;37.758;2024-01-25T09:11:45;3.17;;;1.92;;
75616;SDS011;64200;55.426;37.758;2024-01-25T09:16:46;5.50;;;3.00;;
75616;SDS011;64200;55.426;37.758;2024-01-25T09:21:46;4.87;;;2.57;;
75616;SDS011;64200;55.426;37.758;2024-01-25T09:26:47;5.93;;;3.47;;
75616;SDS011;64200;55.426;37.758;2024-01-25T09:31:47;7.77;;;2.60;;
75616;SDS011;64200;55.426;37.758;2024-01-25T09:36:48;11.48;;;4.57;;
75616;SDS011;64200;55.426;37.758;2024-01-25T09:41:48;7.03;;;2.93;;
75616;SDS011;64200;55.426;37.758;2024-01-25T09:46:49;6.63;;;3.45;;
75616;SDS011;64200;55.426;37.758;2024-01-25T09:51:51;10.18;;;3.50;;
75616;SDS011;64200;55.426;37.758;2024-01-25T09:56:52;4.50;;;2.13;;
75616;SDS011;64200;55.426;37.758;2024-01-25T10:01:54;5.05;;;2.17;;
75616;SDS011;64200;55.426;37.758;2024-01-25T10:06:55;8.20;;;3.10;;
75616;SDS011;64200;55.426;37.758;2024-01-25T10:11:59;6.72;;;3.58;;
75616;SDS011;64200;55.426;37.758;2024-01-25T10:17:00;7.27;;;3.97;;
75616;SDS011;64200;55.426;37.758;2024-01-25T10:22:01;7.85;;;3.55;;
75616;SDS011;64200;55.426;37.758;2024-01-25T10:27:04;5.57;;;3.87;;
75616;SDS011;64200;55.426;37.758;2024-01-25T10:32:11;10.73;;;4.82;;
75616;SDS011;64200;55.426;37.758;2024-01-25T10:37:13;10.05;;;4.30;;
75616;SDS011;64200;55.426;37.758;2024-01-25T10:42:23;8.93;;;4.47;;
75616;SDS011;64200;55.426;37.758;2024-01-25T10:47:23;12.27;;;4.43;;
75616;SDS011;64200;55.426;37.758;2024-01-25T10:52:24;7.65;;;3.30;;
75616;SDS011;64200;55.426;37.758;2024-01-25T10:57:25;5.40;;;2.90;;
75616;SDS011;64200;55.426;37.758;2024-01-25T11:02:35;12.65;;;4.88;;
75616;SDS011;64200;55.426;37.758;2024-01-25T11:07:51;8.15;;;3.83;;
75616;SDS011;64200;55.426;37.758;2024-01-25T11:12:54;5.22;;;3.08;;
75616;SDS011;64200;55.426;37.758;2024-01-25T11:17:56;12.18;;;5.63;;
75616;SDS011;64200;55.426;37.758;2024-01-25T11:22:58;5.40;;;3.28;;
75616;SDS011;64200;55.426;37.758;2024-01-25T11:28:01;10.30;;;4.72;;
75616;SDS011;64200;55.426;37.758;2024-01-25T11:33:06;5.97;;;3.58;;
75616;SDS011;64200;55.426;37.758;2024-01-25T11:38:08;6.30;;;2.75;;
75616;SDS011;64200;55.426;37.758;2024-01-25T11:43:09;11.13;;;6.18;;
75616;SDS011;64200;55.426;37.758;2024-01-25T11:48:10;11.10;;;5.25;;
75616;SDS011;64200;55.426;37.758;2024-01-25T11:53:11;11.17;;;4.40;;
75616;SDS011;64200;55.426;37.758;2024-01-25T11:58:11;7.30;;;3.90;;
75616;SDS011;64200;55.426;37.758;2024-01-25T12:03:12;7.38;;;3.38;;
75616;SDS011;64200;55.426;37.758;2024-01-25T12:08:13;7.63;;;4.75;;
75616;SDS011;64200;55.426;37.758;2024-01-25T12:13:17;11.63;;;4.72;;
75616;SDS011;64200;55.426;37.758;2024-01-25T12:18:18;9.23;;;4.50;;
75616;SDS011;64200;55.426;37.758;2024-01-25T12:23:19;15.98;;;6.43;;
75616;SDS011;64200;55.426;37.758;2024-01-25T12:28:20;8.07;;;4.60;;
75616;SDS011;64200;55.426;37.758;2024-01-25T12:33:21;7.07;;;3.17;;
75616;SDS011;64200;55.426;37.758;2024-01-25T12:38:22;10.45;;;4.93;;
75616;SDS011;64200;55.426;37.758;2024-01-25T12:43:23;13.75;;;6.13;;
75616;SDS011;64200;55.426;37.758;2024-01-25T12:48:23;12.95;;;6.00;;
75616;SDS011;64200;55.426;37.758;2024-01-25T12:53:24;16.80;;;6.23;;
75616;SDS011;64200;55.426;37.758;2024-01-25T12:58:25;9.07;;;4.95;;
75616;SDS011;64200;55.426;37.758;2024-01-25T13:03:25;9.57;;;5.70;;
75616;SDS011;64200;55.426;37.758;2024-01-25T13:08:26;15.67;;;6.87;;
75616;SDS011;64200;55.426;37.758;2024-01-25T13:13:26;12.13;;;5.80;;
75616;SDS011;64200;55.426;37.758;2024-01-25T13:18:27;15.73;;;6.33;;
75616;SDS011;64200;55.426;37.758;2024-01-25T13:23:27;5.30;;;3.37;;
75616;SDS011;64200;55.426;37.758;2024-01-25T13:28:28;9.67;;;5.83;;
75616;SDS011;64200;55.426;37.758;2024-01-25T13:33:30;8.75;;;4.45;;
75616;SDS011;64200;55.426;37.758;2024-01-25T13:38:30;13.50;;;5.90;;
75616;SDS011;64200;55.426;37.758;2024-01-25T13:43:31;12.50;;;6.50;;
75616;SDS011;64200;55.426;37.758;2024-01-25T13:48:31;8.38;;;5.13;;
75616;SDS011;64200;55.426;37.758;2024-01-25T13:53:32;14.57;;;6.25;;
75616;SDS011;64200;55.426;37.758;2024-01-25T13:58:32;7.17;;;2.90;;
75616;SDS011;64200;55.426;37.758;2024-01-25T14:03:33;10.77;;;5.23;;
75616;SDS011;64200;55.426;37.758;2024-01-25T14:08:35;12.38;;;5.88;;
75616;SDS011;64200;55.426;37.758;2024-01-25T14:13:36;19.50;;;8.63;;
75616;SDS011;64200;55.426;37.758;2024-01-25T14:18:37;11.47;;;5.33;;
75616;SDS011;64200;55.426;37.758;2024-01-25T14:23:37;18.75;;;8.45;;
75616;SDS011;64200;55.426;37.758;2024-01-25T14:28:38;15.83;;;6.50;;
75616;SDS011;64200;55.426;37.758;2024-01-25T14:33:41;14.80;;;6.57;;
75616;SDS011;64200;55.426;37.758;2024-01-25T14:38:42;19.52;;;8.07;;
75616;SDS011;64200;55.426;37.758;2024-01-25T14:43:43;15.70;;;8.00;;
75616;SDS011;64200;55.426;37.758;2024-01-25T14:48:43;18.33;;;8.63;;
75616;SDS011;64200;55.426;37.758;2024-01-25T14:53:44;11.57;;;5.07;;
75616;SDS011;64200;55.426;37.758;2024-01-25T14:58:44;11.33;;;6.47;;
75616;SDS011;64200;55.426;37.758;2024-01-25T15:03:45;8.60;;;4.37;;
75616;SDS011;64200;55.426;37.758;2024-01-25T15:08:46;18.20;;;8.15;;
75616;SDS011;64200;55.426;37.758;2024-01-25T15:13:46;23.35;;;9.63;;
75616;SDS011;64200;55.426;37.758;2024-01-25T15:18:48;8.48;;;4.15;;
75616;SDS011;64200;55.426;37.758;2024-01-25T15:23:49;11.43;;;6.13;;
75616;SDS011;64200;55.426;37.758;2024-01-25T15:28:50;16.42;;;6.72;;
75616;SDS011;64200;55.426;37.758;2024-01-25T15:33:51;24.15;;;9.68;;
75616;SDS011;64200;55.426;37.758;2024-01-25T15:38:52;18.58;;;8.05;;
75616;SDS011;64200;55.426;37.758;2024-01-25T15:43:53;15.43;;;7.07;;
75616;SDS011;64200;55.426;37.758;2024-01-25T15:48:53;28.87;;;11.43;;
75616;SDS011;64200;55.426;37.758;2024-01-25T15:53:55;16.13;;;6.85;;
75616;SDS011;64200;55.426;37.758;2024-01-25T15:58:56;13.40;;;5.90;;
75616;SDS011;64200;55.426;37.758;2024-01-25T16:03:56;19.03;;;9.30;;
75616;SDS011;64200;55.426;37.758;2024-01-25T16:08:59;22.93;;;10.30;;
75616;SDS011;64200;55.426;37.758;2024-01-25T16:14:01;15.40;;;7.10;;
75616;SDS011;64200;55.426;37.758;2024-01-25T16:19:02;15.43;;;6.47;;
75616;SDS011;64200;55.426;37.758;2024-01-25T16:24:02;12.77;;;5.13;;
75616;SDS011;64200;55.426;37.758;2024-01-25T16:29:04;15.55;;;6.75;;
75616;SDS011;64200;55.426;37.758;2024-01-25T16:34:05;27.27;;;10.90;;
75616;SDS011;64200;55.426;37.758;2024-01-25T16:39:05;14.80;;;6.87;;
75616;SDS011;64200;55.426;37.758;2024-01-25T16:44:06;20.23;;;8.60;;
75616;SDS011;64200;55.426;37.758;2024-01-25T16:49:06;16.70;;;6.80;;
75616;SDS011;64200;55.426;37.758;2024-01-25T16:54:07;18.27;;;6.72;;
75616;SDS011;64200;55.426;37.758;2024-01-25T16:59:07;13.37;;;5.93;;
75616;SDS011;64200;55.426;37.758;2024-01-25T17:04:08;14.27;;;7.20;;
75616;SDS011;64200;55.426;37.758;2024-01-25T17:09:11;13.80;;;5.57;;
75616;SDS011;64200;55.426;37.758;2024-01-25T17:14:13;20.27;;;9.60;;
75616;SDS011;64200;55.426;37.758;2024-01-25T17:19:14;25.70;;;9.77;;
75616;SDS011;64200;55.426;37.758;2024-01-25T17:24:14;14.13;;;7.43;;
75616;SDS011;64200;55.426;37.758;2024-01-25T17:29:15;19.55;;;7.93;;
75616;SDS011;64200;55.426;37.758;2024-01-25T17:34:16;17.43;;;8.37;;
75616;SDS011;64200;55.426;37.758;2024-01-25T17:39:16;19.08;;;7.88;;
75616;SDS011;64200;55.426;37.758;2024-01-25T17:44:17;20.27;;;9.67;;
75616;SDS011;64200;55.426;37.758;2024-01-25T17:49:18;10.35;;;4.32;;
75616;SDS011;64200;55.426;37.758;2024-01-25T17:54:18;15.63;;;6.07;;
75616;SDS011;64200;55.426;37.758;2024-01-25T17:59:19;20.67;;;10.27;;
75616;SDS011;64200;55.426;37.758;2024-01-25T18:04:21;22.67;;;10.35;;
75616;SDS011;64200;55.426;37.758;2024-01-25T18:09:21;17.07;;;8.03;;
75616;SDS011;64200;55.426;37.758;2024-01-25T18:14:25;18.13;;;8.60;;
75616;SDS011;64200;55.426;37.758;2024-01-25T18:19:26;13.40;;;6.38;;
75616;SDS011;64200;55.426;37.758;2024-01-25T18:24:29;19.60;;;7.95;;
75616;SDS011;64200;55.426;37.758;2024-01-25T18:29:30;19.13;;;10.02;;
75616;SDS011;64200;55.426;37.758;2024-01-25T18:34:30;15.15;;;7.82;;
75616;SDS011;64200;55.426;37.758;2024-01-25T18:39:31;25.95;;;10.80;;
75616;SDS011;64200;55.426;37.758;2024-01-25T18:44:31;22.10;;;9.67;;
75616;SDS011;64200;55.426;37.758;2024-01-25T18:49:32;15.70;;;8.45;;
75616;SDS011;64200;55.426;37.758;2024-01-25T18:54:33;15.27;;;6.20;;
75616;SDS011;64200;55.426;37.758;2024-01-25T18:59:34;16.45;;;8.27;;
75616;SDS011;64200;55.426;37.758;2024-01-25T19:04:34;19.45;;;8.77;;
75616;SDS011;64200;55.426;37.758;2024-01-25T19:09:35;16.50;;;7.15;;
75616;SDS011;64200;55.426;37.758;2024-01-25T19:14:37;19.30;;;9.23;;
75616;SDS011;64200;55.426;37.758;2024-01-25T19:19:38;21.70;;;10.18;;
75616;SDS011;64200;55.426;37.758;2024-01-25T19:24:38;13.23;;;7.33;;
75616;SDS011;64200;55.426;37.758;2024-01-25T19:29:39;18.73;;;8.60;;
75616;SDS011;64200;55.426;37.758;2024-01-25T19:34:39;13.35;;;6.50;;
75616;SDS011;64200;55.426;37.758;2024-01-25T19:39:40;20.53;;;8.80;;
75616;SDS011;64200;55.426;37.758;2024-01-25T19:44:41;14.93;;;8.15;;
75616;SDS011;64200;55.426;37.758;2024-01-25T19:49:41;15.52;;;6.97;;
75616;SDS011;64200;55.426;37.758;2024-01-25T19:54:42;17.80;;;7.20;;
75616;SDS011;64200;55.426;37.758;2024-01-25T19:59:43;21.55;;;9.15;;
75616;SDS011;64200;55.426;37.758;2024-01-25T20:04:44;7.97;;;4.43;;
75616;SDS011;64200;55.426;37.758;2024-01-25T20:09:48;21.33;;;7.60;;
75616;SDS011;64200;55.426;37.758;2024-01-25T20:14:49;12.05;;;3.85;;
75616;SDS011;64200;55.426;37.758;2024-01-25T20:19:51;19.10;;;8.73;;
75616;SDS011;64200;55.426;37.758;2024-01-25T20:24:55;23.77;;;7.70;;
75616;SDS011;64200;55.426;37.758;2024-01-25T20:29:55;23.02;;;10.38;;
75616;SDS011;64200;55.426;37.758;2024-01-25T20:34:56;14.53;;;7.07;;
75616;SDS011;64200;55.426;37.758;2024-01-25T20:39:57;12.13;;;7.07;;
75616;SDS011;64200;55.426;37.758;2024-01-25T20:44:57;16.07;;;8.03;;
75616;SDS011;64200;55.426;37.758;2024-01-25T20:49:59;9.63;;;4.93;;
75616;SDS011;64200;55.426;37.758;2024-01-25T20:54:59;10.37;;;4.63;;
75616;SDS011;64200;55.426;37.758;2024-01-25T21:00:00;19.25;;;9.73;;
75616;SDS011;64200;55.426;37.758;2024-01-25T21:05:01;21.07;;;9.40;;
75616;SDS011;64200;55.426;37.758;2024-01-25T21:10:02;17.13;;;7.00;;
75616;SDS011;64200;55.426;37.758;2024-01-25T21:15:03;12.88;;;7.47;;
75616;SDS011;64200;55.426;37.758;2024-01-25T21:20:07;14.85;;;7.47;;
75616;SDS011;64200;55.426;37.758;2024-01-25T21:25:09;21.83;;;8.57;;
75616;SDS011;64200;55.426;37.758;2024-01-25T21:30:10;12.90;;;6.05;;
75616;SDS011;64200;55.426;37.758;2024-01-25T21:35:11;17.63;;;9.15;;
75616;SDS011;64200;55.426;37.758;2024-01-25T21:40:12;21.85;;;10.60;;
75616;SDS011;64200;55.426;37.758;2024-01-25T21:45:13;15.27;;;7.35;;
75616;SDS011;64200;55.426;37.758;2024-01-25T21:50:13;23.00;;;8.88;;
75616;SDS011;64200;55.426;37.758;2024-01-25T21:55:14;20.53;;;8.70;;
75616;SDS011;64200;55.426;37.758;2024-01-25T22:00:17;23.08;;;8.98;;
75616;SDS011;64200;55.426;37.758;2024-01-25T22:05:17;20.50;;;8.93;;
75616;SDS011;64200;55.426;37.758;2024-01-25T22:10:19;10.82;;;4.85;;
75616;SDS011;64200;55.426;37.758;2024-01-25T22:15:20;20.75;;;9.10;;
75616;SDS011;64200;55.426;37.758;2024-01-25T22:20:21;14.90;;;6.97;;
75616;SDS011;64200;55.426;37.758;2024-01-25T22:25:21;11.27;;;6.30;;
75616;SDS011;64200;55.426;37.758;2024-01-25T22:30:22;23.33;;;10.13;;
75616;SDS011;64200;55.426;37.758;2024-01-25T22:35:23;8.77;;;4.53;;
75616;SDS011;64200;55.426;37.758;2024-01-25T22:40:23;8.27;;;4.47;;
75616;SDS011;64200;55.426;37.758;2024-01-25T22:45:24;20.87;;;7.27;;
75616;SDS011;64200;55.426;37.758;2024-01-25T22:50:24;20.02;;;8.00;;
75616;SDS011;64200;55.426;37.758;2024-01-25T22:55:25;13.52;;;5.72;;
75616;SDS011;64200;55.426;37.758;2024-01-25T23:00:25;15.57;;;7.87;;
75616;SDS011;64200;55.426;37.758;2024-01-25T23:05:28;14.23;;;7.15;;
75616;SDS011;64200;55.426;37.758;2024-01-25T23:10:29;16.37;;;7.00;;
75616;SDS011;64200;55.426;37.758;2024-01-25T23:15:29;18.40;;;8.50;;
75616;SDS011;64200;55.426;37.758;2024-01-25T23:20:30;15.33;;;7.10;;
75616;SDS011;64200;55.426;37.758;2024-01-25T23:25:31;20.60;;;8.48;;
75616;SDS011;64200;55.426;37.758;2024-01-25T23:30:32;11.60;;;6.80;;
75616;SDS011;64200;55.426;37.758;2024-01-25T23:35:32;13.83;;;6.93;;
75616;SDS011;64200;55.426;37.758;2024-01-25T23:40:33;16.07;;;7.50;;
75616;SDS011;64200;55.426;37.758;2024-01-25T23:45:33;12.40;;;5.77;;
75616;SDS011;64200;55.426;37.758;2024-01-25T23:50:33;14.60;;;5.97;;
75616;SDS011;64200;55.426;37.758;2024-01-25T23:55:34;16.13;;;7.80;;
